Terminal Aerodrome Forecast
Issued by NWS Wilmington, OH

Current Version | Previous Version | Graphics & Text | Print | Product List | Glossary On
Versions: 1 2 3 4 5 6 7 8 9 10 11 12 13 14 15 16 17 18 19 20 21 22 23 24
000
FTUS41 KILN 032104 AAA
TAFCMH
TAF AMD
KCMH 032104Z 0321/0418 34006KT P6SM VCSH BKN040
     FM040200 VRB03KT P6SM SCT040 BKN100
     FM041500 21012KT P6SM VCSH OVC040=

USA.gov is the U.S. government's official web portal to all federal, state and local government web resources and services.